createdAt,value
2023-01-23T00:00:13.380Z,102830.00
2023-01-23T00:02:44.755Z,102838.69
2023-01-23T00:05:16.075Z,102846.50
2023-01-23T00:07:47.557Z,102840.34
2023-01-23T00:10:19.179Z,102855.25
2023-01-23T00:12:50.599Z,102840.06
2023-01-23T00:15:21.885Z,102855.34
2023-01-23T00:17:53.363Z,102861.63
2023-01-23T00:20:24.758Z,102861.69
2023-01-23T00:22:56.079Z,102853.63
2023-01-23T00:25:27.371Z,102843.72
2023-01-23T00:27:58.651Z,102865.22
2023-01-23T00:30:30.019Z,102859.16
2023-01-23T00:33:01.372Z,102858.16
2023-01-23T00:35:35.124Z,102853.41
2023-01-23T00:38:06.443Z,102873.22
2023-01-23T00:40:37.753Z,102867.03
2023-01-23T00:43:09.028Z,102873.22
2023-01-23T00:45:40.296Z,102880.22
2023-01-23T00:48:11.578Z,102873.16
2023-01-23T00:50:42.957Z,102874.06
2023-01-23T00:53:14.535Z,102871.44
2023-01-23T00:55:45.937Z,102874.97
2023-01-23T00:58:18.499Z,102869.34
2023-01-23T01:00:49.840Z,102861.19
2023-01-23T01:03:21.192Z,102882.63
2023-01-23T01:05:52.825Z,102891.41
2023-01-23T01:08:24.111Z,102893.94
2023-01-23T01:10:55.398Z,102883.38
2023-01-23T01:13:27.568Z,102875.16
2023-01-23T01:16:01.827Z,102867.00
2023-01-23T01:18:33.421Z,102875.06
2023-01-23T01:21:10.011Z,102897.25
2023-01-23T01:23:41.643Z,102891.88
2023-01-23T01:26:13.006Z,102897.41
2023-01-23T01:28:44.340Z,102892.00
2023-01-23T01:31:16.727Z,102878.59
2023-01-23T01:33:49.080Z,102895.66
2023-01-23T01:36:22.700Z,102887.31
2023-01-23T01:38:54.035Z,102909.69
2023-01-23T01:41:25.464Z,102907.06
2023-01-23T01:43:57.381Z,102900.41
2023-01-23T01:46:30.677Z,102910.53
2023-01-23T01:49:10.921Z,102915.84
2023-01-23T01:51:47.328Z,102895.31
2023-01-23T01:54:25.253Z,102913.16
2023-01-23T01:57:11.714Z,102914.13
2023-01-23T01:59:48.150Z,102919.38
2023-01-23T02:02:26.196Z,102912.19
2023-01-23T02:05:02.806Z,102890.59
2023-01-23T02:07:40.875Z,102928.91
2023-01-23T02:10:14.176Z,102922.66
2023-01-23T02:12:47.554Z,102929.72
2023-01-23T02:15:21.421Z,102918.03
2023-01-23T02:17:54.772Z,102927.16
2023-01-23T02:20:28.626Z,102910.09
2023-01-23T02:23:12.140Z,102922.66
2023-01-23T02:25:43.495Z,102937.81
2023-01-23T02:28:16.297Z,102929.66
2023-01-23T02:30:47.673Z,102931.44
2023-01-23T02:33:18.924Z,102934.00
2023-01-23T02:35:50.725Z,102933.03
2023-01-23T02:38:26.278Z,102933.78
2023-01-23T02:41:01.353Z,102925.69
2023-01-23T02:43:38.351Z,102911.31
2023-01-23T02:46:11.730Z,102927.56
2023-01-23T02:48:44.274Z,102901.41
2023-01-23T02:51:17.106Z,102905.09
2023-01-23T02:53:48.915Z,102925.69
2023-01-23T02:56:20.232Z,102919.53
2023-01-23T02:59:10.658Z,102915.94
2023-01-23T03:01:41.906Z,102905.16
2023-01-23T03:04:13.315Z,102916.69
2023-01-23T03:06:44.653Z,102912.34
2023-01-23T03:09:17.411Z,102907.03
2023-01-23T03:11:48.764Z,102909.34
2023-01-23T03:14:22.372Z,102909.34
2023-01-23T03:16:55.075Z,102887.81
2023-01-23T03:19:27.015Z,102892.09
2023-01-23T03:21:58.767Z,102907.41
2023-01-23T03:24:30.251Z,102885.06
2023-01-23T03:27:01.723Z,102900.38
2023-01-23T03:29:51.538Z,102887.75
2023-01-23T03:32:22.792Z,102892.09
2023-01-23T03:34:54.145Z,102891.28
2023-01-23T03:37:25.679Z,102909.03
2023-01-23T03:40:15.835Z,102913.31
2023-01-23T03:42:47.174Z,102919.44
2023-01-23T03:45:18.429Z,102918.53
2023-01-23T03:47:49.687Z,102915.69
2023-01-23T03:50:21.221Z,102933.47
2023-01-23T03:52:52.652Z,102933.53
2023-01-23T03:55:23.944Z,102935.19
2023-01-23T03:57:55.221Z,102946.09
2023-01-23T04:00:26.483Z,102953.13
2023-01-23T04:02:57.854Z,102950.59
2023-01-23T04:05:29.306Z,102926.56
2023-01-23T04:08:01.183Z,102939.03
2023-01-23T04:10:32.558Z,102941.75
2023-01-23T04:13:04.221Z,102947.88
2023-01-23T04:15:35.542Z,102940.56
2023-01-23T04:18:06.900Z,102932.41
2023-01-23T04:20:38.184Z,102948.63
2023-01-23T04:23:09.551Z,102949.53
2023-01-23T04:25:40.884Z,102938.72
2023-01-23T04:28:13.168Z,102959.13
2023-01-23T04:30:44.989Z,102953.81
2023-01-23T04:33:17.118Z,102958.09
2023-01-23T04:35:54.953Z,102963.31
2023-01-23T04:38:28.281Z,102964.13
2023-01-23T04:41:00.230Z,102960.78
2023-01-23T04:43:31.588Z,102950.78
2023-01-23T04:46:02.948Z,102970.44
2023-01-23T04:48:34.265Z,102954.38
2023-01-23T04:51:06.214Z,102970.53
2023-01-23T04:53:38.154Z,102972.97
2023-01-23T04:56:09.426Z,102981.84
2023-01-23T04:58:40.680Z,102973.97
2023-01-23T05:01:12.094Z,102947.94
2023-01-23T05:03:43.360Z,102956.09
2023-01-23T05:06:14.677Z,102955.03
2023-01-23T05:08:46.213Z,102988.22
2023-01-23T05:11:17.630Z,102985.59
2023-01-23T05:13:48.946Z,102959.47
2023-01-23T05:16:20.265Z,102992.88
2023-01-23T05:18:51.606Z,102997.28
2023-01-23T05:21:22.918Z,102996.59
2023-01-23T05:23:54.201Z,102993.84
2023-01-23T05:26:25.489Z,102998.94
2023-01-23T05:28:56.820Z,102980.13
2023-01-23T05:31:28.238Z,102994.22
2023-01-23T05:33:59.754Z,103000.22
2023-01-23T05:36:31.072Z,102992.75
2023-01-23T05:39:02.431Z,103005.31
2023-01-23T05:41:33.730Z,102999.94
2023-01-23T05:44:05.156Z,103009.72
2023-01-23T05:46:36.495Z,103014.94
2023-01-23T05:49:07.835Z,103002.34
2023-01-23T05:51:39.132Z,103027.16
2023-01-23T05:54:10.594Z,103016.56
2023-01-23T05:56:42.135Z,102995.56
2023-01-23T05:59:13.420Z,103014.47
2023-01-23T06:01:45.010Z,103027.06
2023-01-23T06:04:16.368Z,103033.13
2023-01-23T06:06:47.670Z,103018.66
2023-01-23T06:09:19.117Z,103011.47
2023-01-23T06:11:50.407Z,103032.25
2023-01-23T06:14:21.858Z,103014.31
2023-01-23T06:16:53.141Z,103031.41
2023-01-23T06:19:24.495Z,102996.09
2023-01-23T06:21:55.882Z,103018.66
2023-01-23T06:24:27.222Z,103023.16
2023-01-23T06:26:58.603Z,103039.47
2023-01-23T06:29:29.984Z,103030.50
2023-01-23T06:32:01.371Z,103031.41
2023-01-23T06:34:32.772Z,103036.78
2023-01-23T06:37:04.291Z,103020.47
2023-01-23T06:39:35.639Z,103023.91
2023-01-23T06:42:10.056Z,103022.09
2023-01-23T06:44:43.193Z,103008.53
2023-01-23T06:47:15.646Z,103016.78
2023-01-23T06:49:46.958Z,103054.19
2023-01-23T06:52:18.328Z,103054.88
2023-01-23T06:54:49.631Z,103050.13
2023-01-23T06:57:21.281Z,103045.72
2023-01-23T06:59:52.559Z,103066.41
2023-01-23T07:02:24.335Z,103076.84
2023-01-23T07:04:57.766Z,103075.03
2023-01-23T07:07:29.123Z,103072.41
2023-01-23T07:10:00.481Z,103055.22
2023-01-23T07:12:31.868Z,103073.22
2023-01-23T07:15:04.511Z,103078.47
2023-01-23T07:17:35.888Z,103074.94
2023-01-23T07:20:07.994Z,103071.34
2023-01-23T07:22:39.819Z,103078.31
2023-01-23T07:25:11.125Z,103066.53
2023-01-23T07:27:42.475Z,103089.63
2023-01-23T07:30:14.367Z,103085.88
2023-01-23T07:32:45.693Z,103087.75
2023-01-23T07:35:17.018Z,103095.53
2023-01-23T07:37:48.286Z,103090.13
2023-01-23T07:40:19.748Z,103074.75
2023-01-23T07:42:51.317Z,103094.81
2023-01-23T07:45:22.610Z,103086.69
2023-01-23T07:47:53.905Z,103092.34
2023-01-23T07:50:25.300Z,103099.53
2023-01-23T07:52:57.048Z,103094.22
2023-01-23T07:55:29.494Z,103094.22
2023-01-23T07:58:00.970Z,103089.78
2023-01-23T08:00:32.549Z,103089.41
2023-01-23T08:03:03.930Z,103091.19
2023-01-23T08:05:35.293Z,103099.00
2023-01-23T08:08:13.427Z,103103.72
2023-01-23T08:10:45.201Z,103105.38
2023-01-23T08:13:16.635Z,103119.16
2023-01-23T08:15:47.984Z,103115.78
2023-01-23T08:18:19.281Z,103098.78
2023-01-23T08:20:58.146Z,103124.06
2023-01-23T08:23:32.683Z,103124.94
2023-01-23T08:26:06.678Z,103132.25
2023-01-23T08:28:38.020Z,103144.69
2023-01-23T08:31:10.749Z,103149.19
2023-01-23T08:33:42.183Z,103137.88
2023-01-23T08:36:13.961Z,103152.72
2023-01-23T08:38:45.515Z,103155.34
2023-01-23T08:41:18.083Z,103139.22
2023-01-23T08:43:50.549Z,103161.13
2023-01-23T08:46:22.846Z,103164.91
2023-01-23T08:48:54.255Z,103159.81
2023-01-23T08:51:27.094Z,103161.84
2023-01-23T08:53:59.472Z,103158.53
2023-01-23T08:56:30.779Z,103164.03
2023-01-23T08:59:05.135Z,103158.75
2023-01-23T09:01:36.478Z,103139.41
2023-01-23T09:04:07.971Z,103110.53
2023-01-23T09:06:39.625Z,103152.78
2023-01-23T09:09:10.962Z,103159.81
2023-01-23T09:11:42.450Z,103165.06
2023-01-23T09:14:13.891Z,103140.75
2023-01-23T09:16:45.224Z,103139.03
2023-01-23T09:19:16.676Z,103137.31
2023-01-23T09:21:47.972Z,103128.97
2023-01-23T09:24:19.340Z,103141.28
2023-01-23T09:26:50.713Z,103162.00
2023-01-23T09:29:21.983Z,103159.22
2023-01-23T09:31:53.331Z,103137.47
2023-01-23T09:34:24.843Z,103162.81
2023-01-23T09:36:57.223Z,103153.06
2023-01-23T09:39:28.481Z,103135.88
2023-01-23T09:42:08.498Z,103163.78
2023-01-23T09:44:48.262Z,103160.34
2023-01-23T09:47:46.714Z,103170.19
2023-01-23T09:50:25.229Z,103139.63
2023-01-23T09:53:06.270Z,103145.41
2023-01-23T09:55:48.940Z,103137.16
2023-01-23T09:58:42.997Z,103160.41
2023-01-23T10:01:14.493Z,103150.06
2023-01-23T10:03:45.935Z,103148.34
2023-01-23T10:06:20.688Z,103162.59
2023-01-23T10:09:34.535Z,103168.75
2023-01-23T10:12:54.760Z,103162.28
2023-01-23T10:15:47.187Z,103156.66
2023-01-23T10:18:26.300Z,103159.59
2023-01-23T10:21:16.938Z,103146.44
2023-01-23T10:24:00.966Z,103160.22
2023-01-23T10:26:43.400Z,103156.91
2023-01-23T10:29:29.641Z,103156.44
2023-01-23T10:32:03.744Z,103133.63
2023-01-23T10:34:47.352Z,103140.34
2023-01-23T10:37:25.399Z,103132.38
2023-01-23T10:40:13.106Z,103154.25
2023-01-23T10:42:44.442Z,103143.59
2023-01-23T10:45:21.260Z,103155.44
2023-01-23T10:47:55.367Z,103148.38
2023-01-23T10:50:39.599Z,103164.59
2023-01-23T10:53:19.803Z,103153.56
2023-01-23T10:55:55.542Z,103167.00
2023-01-23T10:58:37.038Z,103171.50
2023-01-23T11:01:25.979Z,103171.56
2023-01-23T11:03:57.767Z,103169.63
2023-01-23T11:06:29.052Z,103157.94
2023-01-23T11:09:01.975Z,103177.25
2023-01-23T11:11:33.546Z,103181.97
2023-01-23T11:14:09.738Z,103178.50
2023-01-23T11:16:41.303Z,103151.66
2023-01-23T11:19:20.634Z,103174.13
2023-01-23T11:22:00.891Z,103171.59
2023-01-23T11:24:41.266Z,103176.16
2023-01-23T11:27:26.407Z,103180.66
2023-01-23T11:30:23.898Z,103184.25
2023-01-23T11:33:04.148Z,103175.47
2023-01-23T11:36:00.273Z,103180.84
2023-01-23T11:38:44.842Z,103172.75
2023-01-23T11:41:28.706Z,103159.13
2023-01-23T11:44:08.028Z,103153.66
2023-01-23T11:47:01.762Z,103176.84
2023-01-23T11:50:02.556Z,103183.63
2023-01-23T11:52:33.797Z,103179.06
2023-01-23T11:55:38.554Z,103187.22
2023-01-23T11:58:24.899Z,103178.09
2023-01-23T12:01:18.268Z,103173.22
2023-01-23T12:04:14.399Z,103178.03
2023-01-23T12:06:54.792Z,103183.44
2023-01-23T12:09:39.000Z,103165.34
2023-01-23T12:12:38.598Z,103191.94
2023-01-23T12:15:41.645Z,103188.88
2023-01-23T12:18:49.396Z,103194.44
2023-01-23T12:21:37.679Z,103194.22
2023-01-23T12:24:32.243Z,103188.88
2023-01-23T12:27:20.604Z,103193.19
2023-01-23T12:30:07.247Z,103189.50
2023-01-23T12:32:45.233Z,103184.38
2023-01-23T12:35:42.735Z,103163.13
2023-01-23T12:38:23.121Z,103177.88
2023-01-23T12:41:24.903Z,103177.25
2023-01-23T12:44:18.189Z,103175.88
2023-01-23T12:47:01.632Z,103162.38
2023-01-23T12:49:44.496Z,103182.03
2023-01-23T12:52:23.640Z,103174.97
2023-01-23T12:55:06.049Z,103177.38
2023-01-23T12:58:00.171Z,103172.69
2023-01-23T13:00:41.773Z,103184.03
2023-01-23T13:03:45.986Z,103183.00
2023-01-23T13:06:36.800Z,103188.97
2023-01-23T13:09:26.166Z,103187.78
2023-01-23T13:12:23.026Z,103176.84
2023-01-23T13:15:19.067Z,103181.13
2023-01-23T13:18:01.648Z,103162.00
2023-01-23T13:21:14.424Z,103181.88
2023-01-23T13:23:45.844Z,103168.31
2023-01-23T13:26:20.161Z,103186.53
2023-01-23T13:29:02.322Z,103185.69
2023-01-23T13:31:46.509Z,103184.72
2023-01-23T13:34:18.044Z,103187.56
2023-01-23T13:36:51.383Z,103200.72
2023-01-23T13:39:28.302Z,103196.28
2023-01-23T13:42:11.742Z,103190.91
2023-01-23T13:45:24.239Z,103190.00
2023-01-23T14:20:51.529Z,103127.78
2023-01-23T14:23:30.607Z,103201.81
2023-01-23T14:26:04.770Z,103160.63
2023-01-23T14:28:36.784Z,103139.22
2023-01-23T14:31:22.326Z,103171.69
2023-01-23T14:34:18.764Z,103146.03
2023-01-23T14:37:01.124Z,103087.53
2023-01-23T14:39:35.523Z,103123.38
2023-01-23T14:42:16.508Z,103118.66
2023-01-23T14:44:51.972Z,103124.91
2023-01-23T14:47:34.358Z,103120.34
2023-01-23T14:50:15.594Z,103199.47
2023-01-23T14:52:57.361Z,103126.50
2023-01-23T14:55:30.896Z,103187.78
2023-01-23T14:58:03.881Z,103110.16
2023-01-23T15:00:35.886Z,103181.03
2023-01-23T15:03:12.302Z,103187.19
2023-01-23T15:05:57.329Z,103206.78
2023-01-23T15:08:33.591Z,103157.28
2023-01-23T15:11:06.582Z,103197.72
2023-01-23T15:13:50.229Z,103198.41
2023-01-23T15:16:29.043Z,103184.88
2023-01-23T15:19:19.621Z,103195.63
2023-01-23T15:22:05.007Z,103154.34
2023-01-23T15:24:36.330Z,103147.16
2023-01-23T15:27:24.856Z,103179.72
2023-01-23T15:30:30.244Z,103185.78
2023-01-23T15:33:07.094Z,103161.56
2023-01-23T15:35:38.465Z,103169.38
2023-01-23T15:38:16.391Z,103147.00
2023-01-23T15:40:47.848Z,103165.22
2023-01-23T15:43:19.492Z,103142.03
2023-01-23T15:45:50.808Z,103163.34
2023-01-23T15:48:22.104Z,103144.31
2023-01-23T15:50:54.604Z,103164.09
2023-01-23T15:53:25.968Z,103081.25
2023-01-23T15:55:57.539Z,103132.34
2023-01-23T15:58:28.841Z,103164.72
2023-01-23T16:01:00.290Z,103168.09
2023-01-23T16:03:31.686Z,103159.97
2023-01-23T16:06:04.927Z,103123.19
2023-01-23T16:08:36.835Z,103160.91
2023-01-23T16:11:08.232Z,103172.28
2023-01-23T16:13:39.564Z,103165.81
2023-01-23T16:16:15.356Z,103175.72
2023-01-23T16:18:46.717Z,103159.44
2023-01-23T16:21:20.956Z,103177.31
2023-01-23T16:23:53.683Z,103188.63
2023-01-23T16:26:27.750Z,103189.47
2023-01-23T16:29:12.383Z,103183.09
2023-01-23T16:31:44.753Z,103144.00
2023-01-23T16:34:16.188Z,103191.50
2023-01-23T16:36:49.928Z,103191.41
2023-01-23T16:39:26.530Z,103187.59
2023-01-23T16:41:58.201Z,103173.31
2023-01-23T16:44:29.614Z,103187.50
2023-01-23T16:47:00.915Z,103197.19
2023-01-23T16:49:35.981Z,103195.47
2023-01-23T16:52:15.010Z,103202.75
2023-01-23T16:54:46.371Z,103191.88
2023-01-23T16:57:20.133Z,103176.47
2023-01-23T16:59:52.169Z,103211.59
2023-01-23T17:02:30.803Z,103213.19
2023-01-23T17:05:02.530Z,103221.13
2023-01-23T17:07:33.891Z,103221.22
2023-01-23T17:10:05.665Z,103191.56
2023-01-23T17:12:37.140Z,103223.09
2023-01-23T17:15:29.402Z,103221.22
2023-01-23T17:18:01.266Z,103214.53
2023-01-23T17:20:32.694Z,103236.06
2023-01-23T17:23:04.024Z,103231.56
2023-01-23T17:25:36.679Z,103222.25
2023-01-23T17:28:13.402Z,103241.91
2023-01-23T17:30:48.103Z,103221.44
2023-01-23T17:33:22.681Z,103231.09
2023-01-23T17:35:54.281Z,103228.63
2023-01-23T17:38:28.418Z,103226.84
2023-01-23T17:40:59.906Z,103214.06
2023-01-23T17:43:31.245Z,103229.47
2023-01-23T17:46:04.254Z,103228.56
2023-01-23T17:48:39.217Z,103214.00
2023-01-23T17:51:18.990Z,103229.38
2023-01-23T17:53:51.146Z,103234.56
2023-01-23T17:56:22.716Z,103223.59
2023-01-23T17:58:53.981Z,103242.28
2023-01-23T18:01:25.854Z,103251.81
2023-01-23T18:03:57.158Z,103260.50
2023-01-23T18:06:30.352Z,103254.28
2023-01-23T18:09:02.531Z,103258.63
2023-01-23T18:11:33.980Z,103254.19
2023-01-23T18:14:28.027Z,103253.22
2023-01-23T18:16:59.561Z,103262.00
2023-01-23T18:19:31.056Z,103262.00
2023-01-23T18:22:02.983Z,103250.59
2023-01-23T18:24:34.783Z,103253.88
2023-01-23T18:27:21.596Z,103242.31
2023-01-23T18:29:55.618Z,103263.81
2023-01-23T18:32:26.883Z,103268.97
2023-01-23T18:35:20.198Z,103266.28
2023-01-23T18:38:23.076Z,103268.00
2023-01-23T18:41:25.739Z,103270.69
2023-01-23T18:44:11.270Z,103271.59
2023-01-23T18:46:42.737Z,103268.16
2023-01-23T18:49:21.473Z,103244.88
2023-01-23T18:52:13.083Z,103267.25
2023-01-23T18:55:11.351Z,103267.25
2023-01-23T18:57:53.026Z,103272.50
2023-01-23T19:00:51.939Z,103276.94
2023-01-23T19:03:38.302Z,103277.69
2023-01-23T19:06:34.863Z,103282.03
2023-01-23T19:09:12.436Z,103281.03
2023-01-23T19:12:00.179Z,103282.78
2023-01-23T19:14:44.221Z,103283.66
2023-01-23T19:17:30.405Z,103284.50
2023-01-23T19:20:10.097Z,103291.56
2023-01-23T19:23:08.690Z,103283.66
2023-01-23T19:25:40.192Z,103265.47
2023-01-23T19:28:11.671Z,103286.28
2023-01-23T19:30:43.556Z,103266.63
2023-01-23T19:33:16.806Z,103280.06
2023-01-23T19:35:48.909Z,103282.84
2023-01-23T19:38:21.940Z,103293.34
2023-01-23T19:40:55.293Z,103291.63
2023-01-23T19:43:28.043Z,103282.63
2023-01-23T19:46:00.103Z,103287.19
2023-01-23T19:48:31.349Z,103255.47
2023-01-23T19:51:02.856Z,103287.19
2023-01-23T19:53:34.162Z,103282.78
2023-01-23T19:56:06.131Z,103296.28
2023-01-23T19:58:37.946Z,103291.88
2023-01-23T20:01:23.181Z,103263.16
2023-01-23T20:03:54.460Z,103261.53
2023-01-23T20:06:26.358Z,103276.09
2023-01-23T20:08:57.636Z,103273.16
2023-01-23T20:11:29.103Z,103286.63
2023-01-23T20:14:00.425Z,103268.75
2023-01-23T20:16:31.849Z,103283.84
2023-01-23T20:19:03.265Z,103285.72
2023-01-23T20:21:34.640Z,103290.22
2023-01-23T20:24:07.464Z,103281.22
2023-01-23T20:26:40.135Z,103285.56
2023-01-23T20:29:12.071Z,103292.59
2023-01-23T20:31:43.393Z,103284.25
2023-01-23T20:34:14.687Z,103285.81
2023-01-23T20:36:46.186Z,103305.66
2023-01-23T20:39:17.580Z,103256.06
2023-01-23T20:41:48.954Z,103299.50
2023-01-23T20:44:20.360Z,103295.16
2023-01-23T20:46:52.269Z,103289.91
2023-01-23T20:49:23.546Z,103298.75
2023-01-23T20:52:14.853Z,103293.50
2023-01-23T20:54:46.993Z,103290.06
2023-01-23T20:57:18.364Z,103291.94
2023-01-23T20:59:49.624Z,103291.94
2023-01-23T21:02:23.676Z,103299.91
2023-01-23T21:04:55.162Z,103298.09
2023-01-23T21:07:27.923Z,103291.03
2023-01-23T21:09:59.233Z,103297.88
2023-01-23T21:12:30.519Z,103305.00
2023-01-23T21:15:01.915Z,103302.13
2023-01-23T21:17:33.210Z,103311.00
2023-01-23T21:20:05.031Z,103306.63
2023-01-23T21:22:36.354Z,103301.31
2023-01-23T21:25:07.761Z,103304.09
2023-01-23T21:27:39.030Z,103306.72
2023-01-23T21:30:10.982Z,103298.44
2023-01-23T21:32:42.310Z,103304.69
2023-01-23T21:35:13.599Z,103317.16
2023-01-23T21:37:45.083Z,103315.34
2023-01-23T21:40:16.735Z,103306.47
2023-01-23T21:42:48.001Z,103309.78
2023-01-23T21:45:19.570Z,103314.19
2023-01-23T21:47:51.009Z,103312.41
2023-01-23T21:50:22.253Z,103322.91
2023-01-23T21:52:53.550Z,103329.06
2023-01-23T21:55:25.980Z,103326.34
2023-01-23T21:57:57.253Z,103283.78
2023-01-23T22:00:47.132Z,103336.03
2023-01-23T22:03:18.425Z,103322.41
2023-01-23T22:05:49.689Z,103317.31
2023-01-23T22:08:20.951Z,103336.03
2023-01-23T22:10:52.203Z,103338.81
2023-01-23T22:13:23.719Z,103338.56
2023-01-23T22:15:57.224Z,103346.59
2023-01-23T22:18:29.302Z,103329.31
2023-01-23T22:21:02.546Z,103344.72
2023-01-23T22:23:34.551Z,103355.16
2023-01-23T22:26:08.379Z,103346.38
2023-01-23T22:28:39.664Z,103348.00
2023-01-23T22:31:13.875Z,103332.09
2023-01-23T22:33:49.838Z,103324.22
2023-01-23T22:36:21.221Z,103343.16
2023-01-23T22:38:54.052Z,103346.69
2023-01-23T22:41:25.472Z,103329.47
2023-01-23T22:43:59.194Z,103351.69
2023-01-23T22:46:32.211Z,103355.88
2023-01-23T22:49:03.940Z,103354.00
2023-01-23T22:51:35.215Z,103348.50
2023-01-23T22:54:06.477Z,103345.06
2023-01-23T22:56:38.100Z,103341.59
2023-01-23T22:59:09.716Z,103322.09
2023-01-23T23:01:40.980Z,103324.06
2023-01-23T23:04:12.250Z,103303.63
2023-01-23T23:06:43.645Z,103324.22
2023-01-23T23:09:14.916Z,103314.94
2023-01-23T23:11:48.938Z,103323.41
2023-01-23T23:14:20.216Z,103306.34
2023-01-23T23:16:51.473Z,103327.25
2023-01-23T23:19:22.732Z,103330.13
2023-01-23T23:21:54.088Z,103316.00
2023-01-23T23:24:25.403Z,103292.63
2023-01-23T23:26:56.746Z,103294.50
2023-01-23T23:29:28.025Z,103319.84
2023-01-23T23:31:59.366Z,103319.03
2023-01-23T23:34:30.708Z,103317.22
2023-01-23T23:37:02.041Z,103320.75
2023-01-23T23:39:33.320Z,103320.66
2023-01-23T23:42:04.702Z,103328.63
2023-01-23T23:44:35.962Z,103319.59
2023-01-23T23:47:07.225Z,103338.06
2023-01-23T23:49:38.499Z,103344.06
2023-01-23T23:52:09.745Z,103337.91
2023-01-23T23:54:41.012Z,103335.13
2023-01-23T23:57:12.307Z,103332.41
2023-01-23T23:59:43.682Z,103329.78
